Time;durP1;ratioP1;P1;durP2;ratioP2;P2;SDS_P1;SDS_P2;PMS_P1;PMS_P2;Temp;Humidity;BMP_temperature;BMP_pressure;BME280_temperature;BME280_humidity;BME280_pressure;Samples;Min_cycle;Max_cycle;Signal;HPM_P1;HPM_P2
2020/12/24 00:00:34;;;;;;;14.10;4.45;;;;;;;5.77;86.39;100302.94;10125187;28;20061;-65
2020/12/24 00:05:30;;;;;;;11.38;4.15;;;;;;;5.64;86.36;100299.91;10131537;28;20133;-65
2020/12/24 00:10:26;;;;;;;12.48;4.15;;;;;;;5.67;86.30;100299.28;10123073;28;20592;-65
2020/12/24 00:15:23;;;;;;;5.53;1.05;;;;;;;5.90;86.04;100299.50;10136861;28;20066;-64
2020/12/24 00:20:19;;;;;;;5.22;1.70;;;;;;;5.81;86.00;100285.00;10138310;28;20557;-65
2020/12/24 00:25:15;;;;;;;11.43;2.10;;;;;;;5.74;86.19;100279.13;10122876;28;20184;-64
2020/12/24 00:30:12;;;;;;;10.45;2.65;;;;;;;5.57;86.14;100269.63;10129197;28;20141;-64
2020/12/24 00:35:08;;;;;;;8.00;1.67;;;;;;;5.53;86.21;100275.94;10125702;28;20090;-64
2020/12/24 00:40:05;;;;;;;7.60;1.65;;;;;;;5.57;86.59;100275.06;10138680;28;20499;-64
2020/12/24 00:45:01;;;;;;;9.77;2.17;;;;;;;5.10;86.63;100281.41;10130137;28;20047;-64
2020/12/24 00:49:57;;;;;;;6.85;2.30;;;;;;;5.35;86.30;100285.69;10130593;28;20062;-64
2020/12/24 00:54:53;;;;;;;11.07;1.85;;;;;;;5.51;87.03;100289.78;10140583;28;20047;-65
2020/12/24 00:59:49;;;;;;;10.40;1.65;;;;;;;5.52;86.66;100285.97;10138266;28;20051;-64
2020/12/24 01:04:45;;;;;;;5.15;1.27;;;;;;;5.57;86.88;100294.03;10128344;28;20056;-65
2020/12/24 01:09:41;;;;;;;3.58;0.68;;;;;;;5.58;86.28;100298.34;10140534;28;20093;-64
2020/12/24 01:14:38;;;;;;;4.50;0.80;;;;;;;5.59;86.35;100288.31;10132766;28;20058;-64
2020/12/24 01:19:34;;;;;;;11.82;1.90;;;;;;;5.39;86.10;100287.53;10144009;28;20058;-64
2020/12/24 01:24:30;;;;;;;5.25;0.93;;;;;;;5.44;86.56;100292.88;10137446;28;20056;-64
2020/12/24 01:29:27;;;;;;;7.28;0.98;;;;;;;5.49;86.83;100289.28;10119827;28;20070;-65
2020/12/24 01:34:23;;;;;;;7.65;1.70;;;;;;;5.32;86.21;100289.00;10140209;28;20422;-65
2020/12/24 01:39:19;;;;;;;8.20;1.40;;;;;;;5.36;86.83;100273.72;10134783;28;20054;-64
2020/12/24 01:44:15;;;;;;;8.07;1.25;;;;;;;5.19;85.82;100269.63;10128885;28;20051;-65
2020/12/24 01:49:11;;;;;;;4.93;1.20;;;;;;;5.25;86.82;100273.88;10139772;28;20153;-65
2020/12/24 01:54:07;;;;;;;6.53;1.20;;;;;;;5.23;85.98;100273.38;10129172;28;20665;-65
2020/12/24 01:59:03;;;;;;;6.43;1.27;;;;;;;5.23;85.93;100278.78;10133803;28;20136;-64
2020/12/24 02:04:00;;;;;;;4.50;1.25;;;;;;;5.05;86.35;100279.59;10138830;28;20065;-64
2020/12/24 02:08:56;;;;;;;9.20;1.98;;;;;;;5.16;86.64;100270.22;10141317;28;20109;-64
2020/12/24 02:13:51;;;;;;;8.43;1.85;;;;;;;4.98;86.64;100263.69;10142717;28;20061;-64
2020/12/24 02:18:48;;;;;;;6.38;1.38;;;;;;;5.06;87.24;100264.97;10143635;28;20141;-64
2020/12/24 02:23:44;;;;;;;7.70;1.98;;;;;;;5.01;86.26;100257.69;10125448;28;20065;-65
2020/12/24 02:28:40;;;;;;;4.65;1.42;;;;;;;5.03;86.99;100250.06;10141206;28;20054;-65
2020/12/24 02:33:36;;;;;;;5.72;1.50;;;;;;;5.11;87.52;100240.50;10135157;28;20407;-66
2020/12/24 02:38:33;;;;;;;9.20;1.50;;;;;;;5.12;86.97;100247.50;10134817;28;20462;-65
2020/12/24 02:43:29;;;;;;;8.77;1.50;;;;;;;5.13;87.12;100235.59;10131717;28;20046;-65
2020/12/24 02:48:25;;;;;;;4.63;1.02;;;;;;;5.24;87.03;100217.25;10133762;28;20054;-66
2020/12/24 02:53:21;;;;;;;2.75;0.80;;;;;;;5.22;87.51;100198.59;10136762;28;20165;-64
2020/12/24 02:58:17;;;;;;;9.25;1.60;;;;;;;5.13;86.76;100205.78;10130807;28;20062;-65
2020/12/24 03:03:14;;;;;;;8.45;1.48;;;;;;;4.81;86.89;100201.09;10136500;28;20056;-65
2020/12/24 03:08:10;;;;;;;7.03;1.42;;;;;;;4.83;87.07;100204.31;10135660;28;20133;-65
2020/12/24 03:13:06;;;;;;;2.10;0.95;;;;;;;4.80;86.82;100200.28;10128869;28;20418;-65
2020/12/24 03:18:02;;;;;;;5.78;1.40;;;;;;;4.47;87.15;100193.13;10135398;28;20055;-65
2020/12/24 03:22:58;;;;;;;6.53;1.40;;;;;;;4.74;87.67;100192.50;10120958;28;20059;-64
2020/12/24 03:27:54;;;;;;;5.57;1.33;;;;;;;4.42;87.09;100192.09;10128763;28;20089;-65
2020/12/24 03:32:50;;;;;;;3.97;1.30;;;;;;;4.66;87.06;100193.94;10135898;28;20058;-64
2020/12/24 03:37:46;;;;;;;4.25;1.25;;;;;;;4.59;87.16;100198.91;10127859;28;20057;-65
2020/12/24 03:42:42;;;;;;;6.95;1.40;;;;;;;4.28;86.62;100195.78;10128152;28;20058;-64
2020/12/24 03:47:39;;;;;;;5.43;1.10;;;;;;;4.44;86.37;100199.94;10135378;28;20050;-64
2020/12/24 03:52:35;;;;;;;6.28;1.40;;;;;;;4.48;87.20;100198.25;10135440;28;20089;-64
2020/12/24 03:57:31;;;;;;;3.40;1.40;;;;;;;4.36;86.89;100204.09;10129781;28;20090;-64
2020/12/24 04:02:27;;;;;;;3.92;1.02;;;;;;;4.39;87.70;100198.09;10120245;28;20604;-65
2020/12/24 04:07:23;;;;;;;2.70;1.30;;;;;;;4.29;86.03;100198.19;10126571;28;20053;-64
2020/12/24 04:12:19;;;;;;;4.15;1.17;;;;;;;4.09;86.83;100198.44;10117037;28;20096;-64
2020/12/24 04:17:15;;;;;;;3.20;1.23;;;;;;;4.40;87.99;100188.84;10129616;28;20051;-64
2020/12/24 04:22:11;;;;;;;3.92;0.93;;;;;;;4.04;87.46;100201.16;10137644;28;20057;-64
2020/12/24 04:27:07;;;;;;;2.40;0.90;;;;;;;4.45;88.26;100198.81;10137024;28;20054;-64
2020/12/24 04:32:03;;;;;;;1.90;0.73;;;;;;;3.81;86.07;100211.69;10134705;28;20066;-64
2020/12/24 04:36:59;;;;;;;1.48;0.60;;;;;;;4.00;86.09;100220.69;10128687;28;20125;-64
2020/12/24 04:41:58;;;;;;;1.63;0.63;;;;;;;4.03;85.95;100221.22;10123183;28;20053;-65
2020/12/24 04:46:55;;;;;;;2.42;0.75;;;;;;;4.06;86.00;100226.03;10124631;28;20325;-64
2020/12/24 04:51:51;;;;;;;1.85;0.40;;;;;;;3.73;84.85;100225.81;10125753;28;20548;-65
2020/12/24 04:56:48;;;;;;;1.98;0.45;;;;;;;3.76;86.85;100233.34;10133148;28;20132;-65
2020/12/24 05:01:49;;;;;;;0.80;0.40;;;;;;;3.74;85.72;100240.97;10124775;28;20046;-64
2020/12/24 05:06:45;;;;;;;1.35;0.50;;;;;;;3.55;84.99;100243.53;10139395;28;20051;-64
2020/12/24 05:11:44;;;;;;;2.03;0.75;;;;;;;3.54;84.98;100226.50;10130866;28;20047;-65
2020/12/24 05:16:40;;;;;;;2.40;0.60;;;;;;;3.08;84.52;100240.34;10123619;28;20489;-65
2020/12/24 05:21:39;;;;;;;3.42;1.10;;;;;;;3.13;85.36;100245.72;10122756;28;20059;-65
2020/12/24 05:26:34;;;;;;;2.05;0.88;;;;;;;3.08;84.81;100245.75;10120737;28;20092;-64
2020/12/24 05:31:34;;;;;;;2.30;1.10;;;;;;;3.28;85.25;100254.81;10124366;28;20066;-65
2020/12/24 05:36:30;;;;;;;1.77;0.90;;;;;;;3.31;84.65;100259.66;10135810;28;20050;-65
2020/12/24 05:41:31;;;;;;;2.10;0.90;;;;;;;3.21;85.16;100267.84;10134671;28;20149;-64
2020/12/24 05:46:29;;;;;;;1.58;0.68;;;;;;;3.05;85.18;100276.03;10136555;28;20525;-64
2020/12/24 05:51:25;;;;;;;1.45;0.50;;;;;;;3.29;85.04;100278.03;10133026;28;20061;-64
2020/12/24 05:56:22;;;;;;;1.67;0.60;;;;;;;3.14;84.01;100282.44;10139619;28;20469;-64
2020/12/24 06:01:20;;;;;;;1.95;0.55;;;;;;;2.91;84.30;100288.53;10132107;28;20058;-64
2020/12/24 06:06:31;;;;;;;1.33;0.52;;;;;;;2.72;84.56;100299.94;10144491;28;20565;-65
2020/12/24 06:11:28;;;;;;;0.77;0.40;;;;;;;2.74;84.94;100300.47;10128092;28;20066;-65
2020/12/24 06:16:27;;;;;;;1.23;0.60;;;;;;;2.73;84.77;100315.03;10141295;28;20054;-65
2020/12/24 06:21:25;;;;;;;1.42;0.60;;;;;;;2.47;85.01;100313.50;10143365;28;20069;-65
2020/12/24 06:26:28;;;;;;;0.80;0.40;;;;;;;2.56;85.12;100319.97;10134486;28;20053;-64
2020/12/24 06:31:25;;;;;;;1.20;0.55;;;;;;;2.54;85.50;100322.13;10138666;28;20050;-64
2020/12/24 06:36:35;;;;;;;2.08;0.57;;;;;;;2.51;85.46;100330.78;10132251;28;20078;-64
2020/12/24 06:41:36;;;;;;;1.70;0.63;;;;;;;2.27;84.79;100338.63;10137790;28;20078;-65
2020/12/24 06:46:55;;;;;;;2.03;0.80;;;;;;;2.40;84.97;100348.06;10125937;28;20097;-64
2020/12/24 06:51:51;;;;;;;1.63;0.70;;;;;;;2.25;85.36;100357.78;10130929;28;20502;-64
2020/12/24 06:56:47;;;;;;;2.80;1.05;;;;;;;2.36;85.66;100363.16;10125444;28;20521;-65
2020/12/24 07:01:59;;;;;;;3.33;1.20;;;;;;;2.55;85.67;100372.31;10130482;28;20523;-64
2020/12/24 07:06:56;;;;;;;3.67;1.63;;;;;;;2.37;86.15;100380.97;10140740;28;20050;-65
2020/12/24 07:11:53;;;;;;;2.95;1.10;;;;;;;2.50;86.12;100389.31;10141107;28;20046;-64
2020/12/24 07:16:50;;;;;;;2.88;1.30;;;;;;;2.62;86.08;100394.44;10127809;28;20459;-64
2020/12/24 07:21:50;;;;;;;3.67;1.35;;;;;;;2.61;86.83;100406.31;10120066;28;20175;-64
2020/12/24 07:26:56;;;;;;;4.60;1.75;;;;;;;2.71;86.66;100402.78;10126779;28;20054;-65
2020/12/24 07:31:54;;;;;;;4.55;1.60;;;;;;;2.74;86.70;100405.75;10140260;28;20762;-64
2020/12/24 07:36:50;;;;;;;5.00;1.75;;;;;;;2.80;86.96;100416.53;10128752;28;20046;-64
2020/12/24 07:41:47;;;;;;;4.95;1.63;;;;;;;2.82;87.52;100425.19;10136191;28;20141;-64
2020/12/24 07:46:45;;;;;;;4.82;1.88;;;;;;;2.96;87.22;100437.03;10136473;28;20050;-65
2020/12/24 07:51:41;;;;;;;4.75;1.60;;;;;;;2.95;87.28;100447.03;10129827;28;20042;-64
2020/12/24 07:56:45;;;;;;;5.25;2.22;;;;;;;3.08;87.09;100456.44;10127601;28;20050;-64
2020/12/24 08:01:41;;;;;;;5.25;1.90;;;;;;;3.17;87.81;100465.59;10132620;28;20475;-65
2020/12/24 08:06:37;;;;;;;6.53;2.25;;;;;;;3.16;87.30;100461.28;10140782;28;20050;-64
2020/12/24 08:11:33;;;;;;;7.95;3.08;;;;;;;3.23;87.12;100479.13;10134334;28;20042;-64
2020/12/24 08:16:32;;;;;;;5.82;3.45;;;;;;;3.32;87.81;100482.88;10127365;28;20057;-65
2020/12/24 08:21:32;;;;;;;10.98;4.22;;;;;;;3.35;87.79;100493.13;10130158;28;20113;-66
2020/12/24 08:26:31;;;;;;;8.68;3.33;;;;;;;3.35;87.82;100499.34;10123796;28;20101;-64
2020/12/24 08:31:30;;;;;;;10.43;4.30;;;;;;;3.46;87.72;100508.22;10137891;28;20169;-64
2020/12/24 08:36:27;;;;;;;8.05;3.60;;;;;;;3.52;87.37;100509.00;10132288;28;20503;-65
2020/12/24 08:41:24;;;;;;;5.97;3.22;;;;;;;3.45;87.72;100508.50;10135137;28;20478;-65
2020/12/24 08:46:22;;;;;;;10.20;4.38;;;;;;;3.36;88.55;100521.75;10122097;28;20049;-65
2020/12/24 08:51:20;;;;;;;5.80;2.50;;;;;;;3.43;88.19;100538.50;10124720;28;21353;-65
2020/12/24 08:56:21;;;;;;;6.40;2.92;;;;;;;3.51;87.75;100539.84;10128124;28;20050;-65
2020/12/24 09:01:19;;;;;;;7.25;3.00;;;;;;;3.52;88.12;100547.66;10126680;28;20061;-64
2020/12/24 09:06:17;;;;;;;6.38;3.25;;;;;;;3.61;88.46;100549.81;10133723;28;20101;-64
2020/12/24 09:11:31;;;;;;;7.00;3.40;;;;;;;3.58;88.49;100564.69;10126248;28;20129;-64
2020/12/24 09:16:29;;;;;;;8.95;3.92;;;;;;;3.73;88.14;100574.66;10141316;28;20097;-65
2020/12/24 09:21:28;;;;;;;9.00;4.00;;;;;;;3.75;88.30;100591.41;10132255;28;20051;-65
2020/12/24 09:26:46;;;;;;;6.68;4.22;;;;;;;3.76;87.91;100595.72;10146022;28;20054;-65
2020/12/24 09:31:55;;;;;;;9.02;4.32;;;;;;;3.80;88.01;100602.19;10134101;28;20098;-64
2020/12/24 09:36:51;;;;;;;8.98;4.75;;;;;;;3.84;88.02;100614.09;10135308;28;20478;-65
2020/12/24 09:41:48;;;;;;;9.75;6.00;;;;;;;3.89;87.49;100611.38;10144366;28;20046;-64
2020/12/24 09:46:47;;;;;;;11.23;5.07;;;;;;;3.97;88.22;100613.53;10133391;28;20133;-65
2020/12/24 09:51:43;;;;;;;11.38;5.32;;;;;;;4.06;87.74;100610.22;10146626;28;20073;-64
2020/12/24 09:56:58;;;;;;;11.93;5.15;;;;;;;3.98;88.19;100609.72;10138912;28;20054;-65
2020/12/24 10:01:54;;;;;;;9.48;5.22;;;;;;;4.08;88.26;100613.47;10128250;28;20065;-65
2020/12/24 10:06:50;;;;;;;13.15;5.80;;;;;;;4.20;87.75;100622.91;10147501;28;20042;-64
2020/12/24 10:11:47;;;;;;;11.95;5.68;;;;;;;4.15;88.09;100624.81;10136859;28;20066;-64
2020/12/24 10:16:43;;;;;;;11.90;6.47;;;;;;;3.97;88.12;100640.56;10141835;28;20050;-64
2020/12/24 10:21:40;;;;;;;13.82;6.97;;;;;;;4.05;88.20;100630.25;10142235;28;20089;-64
2020/12/24 10:26:44;;;;;;;12.25;6.82;;;;;;;4.13;87.36;100635.09;10136032;28;20034;-64
2020/12/24 10:31:43;;;;;;;12.70;7.57;;;;;;;4.06;87.86;100642.69;10129553;28;20050;-64
2020/12/24 10:36:39;;;;;;;12.10;7.10;;;;;;;4.08;87.80;100629.72;10103838;28;20764;-65
2020/12/24 10:41:39;;;;;;;16.80;7.60;;;;;;;4.07;87.41;100638.91;10123188;28;20054;-65
2020/12/24 10:46:36;;;;;;;14.90;8.30;;;;;;;4.19;88.41;100634.00;10126489;28;20050;-64
2020/12/24 10:51:32;;;;;;;15.25;8.43;;;;;;;4.47;87.99;100634.41;10123436;28;20059;-65
2020/12/24 10:56:28;;;;;;;16.50;8.60;;;;;;;4.55;87.59;100658.19;10134226;28;20610;-65
2020/12/24 11:01:24;;;;;;;19.77;10.57;;;;;;;4.58;87.27;100653.03;10131698;28;20557;-65
2020/12/24 11:06:22;;;;;;;19.73;9.88;;;;;;;4.64;87.63;100646.50;10131570;28;20065;-65
2020/12/24 11:11:18;;;;;;;29.48;13.95;;;;;;;4.50;87.26;100652.78;10119579;28;20548;-65
2020/12/24 11:16:24;;;;;;;29.52;14.55;;;;;;;4.70;86.74;100663.53;10136919;28;20584;-65
2020/12/24 11:21:20;;;;;;;28.92;14.43;;;;;;;4.67;87.31;100664.09;10123659;28;20055;-65
2020/12/24 11:26:24;;;;;;;29.27;14.23;;;;;;;4.79;87.19;100655.63;10133304;28;20058;-65
2020/12/24 11:31:24;;;;;;;34.00;15.75;;;;;;;4.69;87.02;100651.09;10112853;28;20502;-66
2020/12/24 11:36:21;;;;;;;32.67;15.10;;;;;;;4.76;86.93;100662.41;10133743;28;20392;-65
2020/12/24 11:41:19;;;;;;;31.25;16.52;;;;;;;4.84;86.92;100658.28;10122526;28;20099;-65
2020/12/24 11:46:17;;;;;;;36.20;16.30;;;;;;;4.88;87.03;100653.13;10122996;28;20094;-65
2020/12/24 11:51:14;;;;;;;33.83;18.20;;;;;;;4.87;86.80;100656.91;10127169;28;20073;-65
2020/12/24 11:56:14;;;;;;;30.27;16.10;;;;;;;4.92;86.56;100654.16;10135967;28;20479;-65
2020/12/24 12:01:17;;;;;;;30.90;16.27;;;;;;;4.96;86.19;100666.06;10131551;28;20130;-66
2020/12/24 12:06:14;;;;;;;28.55;13.73;;;;;;;4.95;85.99;100669.88;10131117;28;20042;-65
2020/12/24 12:11:14;;;;;;;28.40;14.32;;;;;;;5.02;85.81;100664.97;10134688;28;20051;-65
2020/12/24 12:16:10;;;;;;;23.50;13.18;;;;;;;5.02;85.37;100665.75;10135080;28;20046;-65
2020/12/24 12:21:06;;;;;;;31.65;13.57;;;;;;;5.02;85.91;100678.50;10131345;28;20048;-65
2020/12/24 12:26:02;;;;;;;28.85;13.70;;;;;;;4.97;85.78;100673.13;10128998;28;20046;-65
2020/12/24 12:30:58;;;;;;;28.35;15.52;;;;;;;5.13;85.38;100671.94;10131241;28;20054;-64
2020/12/24 12:35:54;;;;;;;27.08;12.18;;;;;;;5.10;85.30;100686.03;10131439;28;20512;-64
2020/12/24 12:40:50;;;;;;;20.40;10.35;;;;;;;5.20;84.15;100677.84;10134993;28;20141;-66
2020/12/24 12:45:46;;;;;;;20.77;10.70;;;;;;;5.18;83.46;100690.84;10115462;28;20047;-65
2020/12/24 12:50:42;;;;;;;21.98;9.38;;;;;;;5.09;83.85;100697.97;10134754;28;20050;-65
2020/12/24 12:55:40;;;;;;;15.75;9.60;;;;;;;5.05;83.90;100702.31;10142246;28;20062;-64
2020/12/24 13:00:36;;;;;;;19.75;8.93;;;;;;;5.06;83.81;100704.75;10134651;28;20054;-65
2020/12/24 13:05:34;;;;;;;20.73;8.65;;;;;;;5.00;84.22;100707.78;10143287;28;20053;-65
2020/12/24 13:10:29;;;;;;;16.02;6.85;;;;;;;4.98;83.74;100720.81;10137005;28;20113;-64
2020/12/24 13:15:25;;;;;;;12.82;6.57;;;;;;;4.98;83.54;100724.31;10142937;28;20053;-65
2020/12/24 13:20:21;;;;;;;18.40;7.88;;;;;;;4.92;83.68;100730.03;10140596;28;20494;-66
2020/12/24 13:25:17;;;;;;;17.83;7.00;;;;;;;4.81;84.54;100730.09;10135690;28;20571;-65
2020/12/24 13:30:24;;;;;;;15.13;6.68;;;;;;;4.90;84.50;100743.06;10134877;28;20054;-65
2020/12/24 13:35:20;;;;;;;13.82;6.53;;;;;;;4.94;84.30;100752.25;10133375;28;20471;-64
2020/12/24 13:40:16;;;;;;;15.13;6.93;;;;;;;5.01;84.33;100750.03;10134815;28;20499;-65
2020/12/24 13:45:14;;;;;;;9.13;4.25;;;;;;;4.93;84.27;100756.06;10129645;28;20089;-65
2020/12/24 13:50:10;;;;;;;13.25;4.95;;;;;;;4.85;83.41;100773.72;10136416;28;20073;-65
2020/12/24 13:55:06;;;;;;;13.30;5.68;;;;;;;4.85;84.02;100774.53;10134185;28;20054;-65
2020/12/24 14:00:05;;;;;;;13.40;5.72;;;;;;;4.96;83.80;100785.31;10128201;28;20051;-65
2020/12/24 14:05:00;;;;;;;13.98;5.43;;;;;;;4.96;83.01;100796.13;10137021;28;20491;-64
2020/12/24 14:09:57;;;;;;;17.83;5.28;;;;;;;5.02;83.28;100806.69;10132655;28;20082;-65
2020/12/24 14:14:57;;;;;;;8.80;4.85;;;;;;;5.03;83.44;100802.06;10141132;28;20062;-65
2020/12/24 14:19:53;;;;;;;12.07;4.93;;;;;;;5.05;84.03;100811.53;10128796;28;20679;-65
2020/12/24 14:24:49;;;;;;;13.48;4.60;;;;;;;5.04;83.42;100814.53;10133828;28;20479;-64
2020/12/24 14:29:57;;;;;;;13.40;5.07;;;;;;;4.92;84.28;100822.16;10147912;28;20403;-65
2020/12/24 14:34:53;;;;;;;12.82;5.63;;;;;;;4.96;84.02;100834.06;10126909;28;20465;-65
2020/12/24 14:39:49;;;;;;;10.70;5.00;;;;;;;4.81;83.56;100849.31;10123252;28;20078;-65
2020/12/24 14:44:45;;;;;;;11.25;6.20;;;;;;;4.77;82.44;100848.22;10125349;28;20063;-65
2020/12/24 14:49:42;;;;;;;16.13;6.25;;;;;;;4.71;83.34;100862.88;10130216;28;20042;-64
2020/12/24 14:54:38;;;;;;;14.18;7.00;;;;;;;4.85;82.60;100876.66;10120790;28;20584;-64
2020/12/24 14:59:34;;;;;;;15.02;6.85;;;;;;;4.77;82.71;100888.84;10138235;28;20047;-65
2020/12/24 15:04:30;;;;;;;14.52;7.22;;;;;;;4.70;83.24;100891.03;10141819;28;20764;-65
2020/12/24 15:09:26;;;;;;;18.77;8.20;;;;;;;4.72;84.21;100905.13;10129227;28;20054;-65
2020/12/24 15:14:23;;;;;;;16.52;7.68;;;;;;;4.60;83.97;100918.16;10137817;28;20105;-65
2020/12/24 15:19:18;;;;;;;15.27;7.78;;;;;;;4.51;83.21;100927.91;10135326;28;20055;-65
2020/12/24 15:24:14;;;;;;;17.13;8.68;;;;;;;4.37;84.09;100925.75;10134349;28;20454;-64
2020/12/24 15:29:10;;;;;;;17.95;8.55;;;;;;;4.51;84.64;100936.03;10134037;28;20047;-65
2020/12/24 15:34:07;;;;;;;17.45;7.95;;;;;;;4.45;83.58;100937.09;10137970;28;20206;-65
2020/12/24 15:39:03;;;;;;;13.93;6.88;;;;;;;4.39;82.66;100934.41;10137168;28;20085;-65
2020/12/24 15:44:00;;;;;;;12.05;6.80;;;;;;;4.34;82.46;100947.13;10137097;28;20474;-65
2020/12/24 15:48:56;;;;;;;15.68;7.57;;;;;;;4.29;83.21;100958.75;10133477;28;20047;-65
2020/12/24 15:53:52;;;;;;;13.65;6.15;;;;;;;4.36;83.36;100972.88;10133701;28;20142;-65
2020/12/24 15:58:48;;;;;;;13.40;6.97;;;;;;;4.33;83.02;100978.00;10121565;28;20458;-65
2020/12/24 16:03:45;;;;;;;15.63;7.38;;;;;;;4.40;83.37;100979.34;10126884;28;20055;-65
2020/12/24 16:08:41;;;;;;;14.25;7.60;;;;;;;4.40;83.00;100984.75;10128099;28;20078;-65
2020/12/24 16:13:39;;;;;;;23.55;9.10;;;;;;;4.33;82.77;100984.22;10129001;28;20541;-65
2020/12/24 16:18:35;;;;;;;17.35;9.15;;;;;;;4.22;83.30;100994.22;10129926;28;20141;-65
2020/12/24 16:23:31;;;;;;;13.65;8.40;;;;;;;4.27;83.28;101001.53;10129593;28;20105;-65
2020/12/24 16:28:28;;;;;;;15.90;7.65;;;;;;;4.19;83.97;101004.75;10123439;28;20043;-65
2020/12/24 16:33:24;;;;;;;20.05;8.07;;;;;;;4.12;83.66;101015.03;10137464;28;20187;-66
2020/12/24 16:38:20;;;;;;;19.40;10.52;;;;;;;4.23;83.74;101016.69;10131880;28;20047;-65
2020/12/24 16:43:16;;;;;;;18.45;9.25;;;;;;;4.33;83.83;101016.69;10129596;28;20495;-65
2020/12/24 16:48:14;;;;;;;15.75;9.20;;;;;;;4.38;83.43;101019.41;10136850;28;20043;-65
2020/12/24 16:53:10;;;;;;;17.45;8.43;;;;;;;4.23;84.15;101024.81;10128933;28;20081;-65
2020/12/24 16:58:06;;;;;;;20.02;9.13;;;;;;;4.33;84.41;101030.22;10123873;28;20094;-65
2020/12/24 17:03:06;;;;;;;15.00;9.25;;;;;;;4.19;84.67;101042.66;10135726;28;20117;-65
2020/12/24 17:08:02;;;;;;;18.00;10.38;;;;;;;4.15;85.40;101041.56;10128438;28;20054;-65
2020/12/24 17:12:58;;;;;;;16.80;10.73;;;;;;;4.22;85.72;101058.34;10123735;28;20053;-66
2020/12/24 17:17:55;;;;;;;20.23;10.98;;;;;;;4.21;85.97;101072.97;10134833;28;20042;-65
2020/12/24 17:22:52;;;;;;;16.35;9.80;;;;;;;4.26;85.76;101081.09;10134907;28;20046;-65
2020/12/24 17:27:48;;;;;;;15.10;8.70;;;;;;;3.99;85.94;101082.13;10116488;28;20050;-64
2020/12/24 17:32:44;;;;;;;18.02;10.15;;;;;;;3.93;86.43;101088.56;10124372;28;20427;-65
2020/12/24 17:37:41;;;;;;;15.35;9.20;;;;;;;4.06;86.47;101102.69;10122804;28;20124;-64
2020/12/24 17:42:37;;;;;;;19.13;10.55;;;;;;;4.19;nan;101113.84;10121357;28;20128;-65
2020/12/24 17:47:35;;;;;;;19.48;10.77;;;;;;;4.24;86.05;101121.16;10135126;28;20054;-65
2020/12/24 17:52:31;;;;;;;17.02;10.40;;;;;;;4.15;86.04;101122.75;10132642;28;20085;-64
2020/12/24 17:57:27;;;;;;;18.88;9.35;;;;;;;4.18;85.56;101139.28;10141547;28;20676;-65
2020/12/24 18:02:33;;;;;;;17.80;8.57;;;;;;;4.13;85.28;101146.56;10149855;28;20065;-66
2020/12/24 18:07:29;;;;;;;15.65;9.45;;;;;;;4.18;85.96;101154.72;10132043;28;20054;-66
2020/12/24 18:12:25;;;;;;;18.63;9.82;;;;;;;4.18;85.89;101165.53;10117107;28;20756;-65
2020/12/24 18:17:21;;;;;;;17.90;9.25;;;;;;;4.23;85.67;101165.56;10119295;28;20596;-66
2020/12/24 18:22:17;;;;;;;16.65;8.10;;;;;;;4.19;85.42;101177.97;10137113;28;20054;-65
2020/12/24 18:27:13;;;;;;;14.70;7.05;;;;;;;4.00;84.78;101183.84;10138449;28;20053;-66
2020/12/24 18:32:28;;;;;;;12.35;5.60;;;;;;;3.92;85.33;101187.06;10136902;28;20054;-66
2020/12/24 18:37:24;;;;;;;11.30;5.70;;;;;;;3.88;84.86;101194.06;10123748;28;20092;-65
2020/12/24 18:42:20;;;;;;;17.13;5.93;;;;;;;3.81;85.36;101207.00;10121474;28;20050;-66
2020/12/24 18:47:16;;;;;;;13.57;4.80;;;;;;;3.78;84.86;101199.38;10136974;28;20078;-66
2020/12/24 18:52:13;;;;;;;16.30;5.93;;;;;;;3.73;84.51;101215.59;10129459;28;20050;-65
2020/12/24 18:57:09;;;;;;;11.75;5.55;;;;;;;3.62;84.98;101227.41;10132896;28;20039;-66
2020/12/24 19:02:08;;;;;;;10.32;3.75;;;;;;;3.58;85.05;101241.44;10127566;28;20112;-65
2020/12/24 19:07:04;;;;;;;10.18;3.30;;;;;;;3.62;84.26;101249.03;10136498;28;20494;-66
2020/12/24 19:12:01;;;;;;;11.93;3.33;;;;;;;3.48;84.40;101252.19;10129625;28;20050;-66
2020/12/24 19:16:57;;;;;;;8.13;3.35;;;;;;;3.57;83.30;101266.88;10126041;28;20597;-67
2020/12/24 19:21:53;;;;;;;7.70;2.53;;;;;;;3.49;83.89;101267.31;10141651;28;20048;-65
2020/12/24 19:26:49;;;;;;;12.30;3.20;;;;;;;3.44;84.00;101275.41;10134960;28;20139;-66
2020/12/24 19:31:47;;;;;;;9.23;3.20;;;;;;;3.50;83.20;101270.84;10123536;28;20109;-65
2020/12/24 19:36:44;;;;;;;8.63;3.13;;;;;;;3.45;82.93;101282.41;10124237;28;20630;-66
2020/12/24 19:41:40;;;;;;;13.32;4.03;;;;;;;3.39;83.92;101288.88;10136739;28;20046;-66
2020/12/24 19:46:36;;;;;;;7.80;2.83;;;;;;;3.37;83.19;101288.31;10132279;28;20101;-65
2020/12/24 19:51:32;;;;;;;7.28;3.03;;;;;;;3.23;83.08;101301.41;10127716;28;20042;-65
2020/12/24 19:56:28;;;;;;;9.35;3.10;;;;;;;3.28;83.70;101303.34;10131570;28;20057;-66
2020/12/24 20:01:24;;;;;;;11.10;3.45;;;;;;;3.19;83.47;101300.28;10136173;28;20050;-66
2020/12/24 20:06:20;;;;;;;7.38;3.00;;;;;;;3.23;84.13;101311.41;10131250;28;20050;-67
2020/12/24 20:11:16;;;;;;;9.07;2.60;;;;;;;3.20;83.78;101322.72;10116563;28;20125;-65
2020/12/24 20:16:12;;;;;;;6.20;2.75;;;;;;;3.20;83.56;101328.13;10131775;28;20061;-66
2020/12/24 20:21:08;;;;;;;12.52;2.95;;;;;;;3.11;83.33;101328.56;10125866;28;20499;-66
2020/12/24 20:26:05;;;;;;;8.93;2.92;;;;;;;3.07;83.53;101330.16;10126784;28;20050;-66
2020/12/24 20:31:01;;;;;;;8.20;2.65;;;;;;;3.02;83.67;101326.56;10133422;28;20074;-66
2020/12/24 20:35:57;;;;;;;6.43;2.40;;;;;;;2.89;83.36;101333.97;10125460;28;20422;-65
2020/12/24 20:40:53;;;;;;;9.88;2.67;;;;;;;2.95;83.97;101332.97;10127990;28;20050;-66
2020/12/24 20:45:49;;;;;;;7.82;2.22;;;;;;;2.93;83.53;101339.72;10128011;28;20053;-66
2020/12/24 20:50:46;;;;;;;9.90;2.80;;;;;;;2.86;83.12;101341.78;10133945;28;20149;-65
2020/12/24 20:55:42;;;;;;;5.82;2.40;;;;;;;2.86;83.32;101344.47;10118633;28;20058;-65
2020/12/24 21:00:38;;;;;;;9.85;2.28;;;;;;;2.92;83.87;101348.84;10122399;28;20053;-65
2020/12/24 21:05:34;;;;;;;8.45;2.70;;;;;;;2.79;83.91;101371.66;10117072;28;20296;-65
2020/12/24 21:10:31;;;;;;;9.43;3.47;;;;;;;2.84;83.62;101373.63;10129679;28;20522;-66
2020/12/24 21:15:27;;;;;;;8.25;2.10;;;;;;;2.85;83.37;101377.94;10135931;28;20121;-65
2020/12/24 21:20:23;;;;;;;8.50;2.33;;;;;;;2.82;83.78;101400.06;10146801;28;20051;-65
2020/12/24 21:25:20;;;;;;;11.57;2.70;;;;;;;2.92;83.50;101397.47;10140116;28;20057;-66
2020/12/24 21:30:16;;;;;;;7.63;2.30;;;;;;;2.85;83.68;101410.34;10142582;28;20058;-66
2020/12/24 21:35:12;;;;;;;8.00;2.15;;;;;;;2.97;83.45;101421.88;10137702;28;20154;-66
2020/12/24 21:40:08;;;;;;;9.93;2.72;;;;;;;3.04;82.85;101427.09;10133143;28;20055;-65
2020/12/24 21:45:05;;;;;;;9.90;2.83;;;;;;;3.06;82.87;101435.75;10135611;28;20059;-65
2020/12/24 21:50:01;;;;;;;7.45;1.92;;;;;;;3.16;81.94;101436.72;10133405;28;20527;-67
2020/12/24 21:54:57;;;;;;;5.35;1.80;;;;;;;3.13;81.75;101439.94;10145410;28;20421;-65
2020/12/24 21:59:53;;;;;;;10.93;2.40;;;;;;;3.14;81.71;101438.84;10129351;28;20058;-65
2020/12/24 22:04:49;;;;;;;12.18;2.33;;;;;;;3.11;82.05;101444.75;10147305;28;20050;-65
2020/12/24 22:09:45;;;;;;;10.50;2.38;;;;;;;3.14;82.23;101452.38;10147863;28;20051;-66
2020/12/24 22:14:43;;;;;;;9.45;2.30;;;;;;;3.07;82.02;101457.13;10138949;28;20088;-66
2020/12/24 22:19:39;;;;;;;7.53;2.13;;;;;;;2.97;81.82;101470.50;10126493;28;20057;-66
2020/12/24 22:24:35;;;;;;;8.50;2.20;;;;;;;3.09;81.63;101467.69;10141681;28;20133;-65
2020/12/24 22:29:33;;;;;;;8.18;2.47;;;;;;;3.14;81.71;101465.88;10123130;28;20053;-65
2020/12/24 22:34:29;;;;;;;10.10;1.92;;;;;;;2.93;81.86;101458.56;10134891;28;20117;-66
2020/12/24 22:39:25;;;;;;;7.40;2.17;;;;;;;3.10;81.80;101459.31;10133252;28;20074;-66
2020/12/24 22:44:22;;;;;;;9.38;2.38;;;;;;;3.06;81.11;101468.19;10130885;28;20073;-66
2020/12/24 22:49:18;;;;;;;11.13;2.75;;;;;;;2.99;81.29;101484.56;10142864;28;20097;-65